Time;durP1;ratioP1;P1;durP2;ratioP2;P2;SDS_P1;SDS_P2;PMS_P1;PMS_P2;Temp;Humidity;BMP_temperature;BMP_pressure;BME280_temperature;BME280_humidity;BME280_pressure;Samples;Min_cycle;Max_cycle;Signal;HPM_P1;HPM_P2
2023/09/13 00:02:20;;;;;;;25.13;11.43;;;;;;;;;;5030025;28;20064;-62
2023/09/13 00:04:47;;;;;;;23.17;11.70;;;;;;;;;;5033835;28;20057;-66
2023/09/13 00:07:13;;;;;;;19.85;11.10;;;;;;;;;;5028014;28;20200;-63
2023/09/13 00:09:41;;;;;;;25.10;11.73;;;;;;;;;;5036848;28;20053;-63
2023/09/13 00:12:08;;;;;;;20.80;11.27;;;;;;;;;;5032815;28;20049;-63
2023/09/13 00:14:35;;;;;;;26.10;11.88;;;;;;;;;;5028441;28;20049;-65
2023/09/13 00:17:03;;;;;;;19.83;10.90;;;;;;;;;;5031880;28;20057;-61
2023/09/13 00:19:30;;;;;;;18.25;9.90;;;;;;;;;;5021378;28;20136;-65
2023/09/13 00:21:57;;;;;;;19.45;11.40;;;;;;;;;;5019478;28;20057;-62
2023/09/13 00:24:24;;;;;;;23.33;11.20;;;;;;;;;;5012817;28;20041;-65
2023/09/13 00:26:50;;;;;;;20.95;9.88;;;;;;;;;;5028522;28;20064;-65
2023/09/13 00:29:17;;;;;;;21.80;11.18;;;;;;;;;;5018913;28;20061;-63
2023/09/13 00:31:43;;;;;;;20.70;10.85;;;;;;;;;;5018930;28;20045;-62
2023/09/13 00:34:12;;;;;;;19.30;11.45;;;;;;;;;;5017078;28;20085;-67
2023/09/13 00:36:40;;;;;;;23.25;12.00;;;;;;;;;;5012913;28;20053;-63
2023/09/13 00:39:07;;;;;;;20.42;10.82;;;;;;;;;;5012318;28;20151;-65
2023/09/13 00:41:33;;;;;;;18.85;11.13;;;;;;;;;;4998820;28;20065;-62
2023/09/13 00:44:00;;;;;;;19.33;10.88;;;;;;;;;;5004119;28;20060;-62
2023/09/13 00:46:27;;;;;;;20.00;11.05;;;;;;;;;;4996903;28;20065;-64
2023/09/13 00:48:54;;;;;;;19.42;11.10;;;;;;;;;;5018611;28;20049;-65
2023/09/13 00:51:22;;;;;;;24.40;11.95;;;;;;;;;;5020655;28;20076;-62
2023/09/13 00:53:49;;;;;;;20.90;11.23;;;;;;;;;;5018903;28;20146;-66
2023/09/13 00:56:17;;;;;;;20.33;10.77;;;;;;;;;;5002575;28;20159;-64
2023/09/13 00:58:44;;;;;;;20.02;11.25;;;;;;;;;;5017767;28;20064;-65
2023/09/13 01:01:12;;;;;;;21.85;10.85;;;;;;;;;;5018741;28;20061;-66
2023/09/13 01:03:40;;;;;;;18.92;10.88;;;;;;;;;;5031998;28;20076;-63
2023/09/13 01:06:09;;;;;;;26.52;10.98;;;;;;;;;;5016951;28;20129;-63
2023/09/13 01:08:39;;;;;;;21.60;10.73;;;;;;;;;;5015488;28;20053;-65
2023/09/13 01:11:06;;;;;;;24.67;11.70;;;;;;;;;;5017601;28;20075;-65
2023/09/13 01:13:33;;;;;;;24.63;11.95;;;;;;;;;;5001838;28;20054;-66
2023/09/13 01:16:09;;;;;;;21.17;11.60;;;;;;;;;;5002053;28;20122;-61
2023/09/13 01:18:40;;;;;;;25.20;11.70;;;;;;;;;;5013325;28;20068;-64
2023/09/13 01:21:24;;;;;;;24.27;11.50;;;;;;;;;;5017460;28;20057;-62
2023/09/13 01:24:10;;;;;;;24.20;12.23;;;;;;;;;;5019165;28;20064;-67
2023/09/13 01:26:48;;;;;;;24.80;10.90;;;;;;;;;;5011446;28;20093;-67
2023/09/13 01:29:17;;;;;;;20.80;11.00;;;;;;;;;;5017911;28;20057;-62
2023/09/13 01:31:44;;;;;;;20.10;11.07;;;;;;;;;;5018997;28;20138;-62
2023/09/13 01:34:11;;;;;;;21.50;12.52;;;;;;;;;;5013401;28;20133;-66
2023/09/13 01:36:38;;;;;;;21.38;12.02;;;;;;;;;;5009444;28;20079;-64
2023/09/13 01:39:05;;;;;;;20.00;12.00;;;;;;;;;;5020614;28;20064;-63
2023/09/13 01:41:45;;;;;;;22.13;10.88;;;;;;;;;;5019956;28;20061;-61
2023/09/13 01:44:12;;;;;;;20.50;11.30;;;;;;;;;;5016947;28;20042;-64
2023/09/13 01:46:44;;;;;;;24.02;11.35;;;;;;;;;;5016551;28;20071;-61
2023/09/13 01:49:13;;;;;;;21.83;11.32;;;;;;;;;;5022753;28;20057;-61
2023/09/13 01:51:40;;;;;;;26.02;11.10;;;;;;;;;;5022653;28;20038;-62
2023/09/13 01:54:09;;;;;;;24.08;11.70;;;;;;;;;;5021112;28;20053;-68
2023/09/13 01:56:36;;;;;;;21.40;10.40;;;;;;;;;;5013097;28;21166;-65
2023/09/13 01:59:04;;;;;;;21.35;11.85;;;;;;;;;;5019396;28;20152;-65
2023/09/13 02:01:31;;;;;;;21.33;11.85;;;;;;;;;;5017054;28;20052;-68
2023/09/13 02:03:59;;;;;;;20.88;11.20;;;;;;;;;;4982990;28;20052;-64
2023/09/13 02:06:25;;;;;;;22.13;12.48;;;;;;;;;;5037590;28;20146;-66
2023/09/13 02:08:52;;;;;;;25.98;11.95;;;;;;;;;;5031211;28;20057;-61
2023/09/13 02:11:19;;;;;;;18.58;10.75;;;;;;;;;;5018821;28;20053;-69
2023/09/13 02:13:46;;;;;;;25.05;12.18;;;;;;;;;;5025858;28;20120;-68
2023/09/13 02:16:13;;;;;;;24.65;12.88;;;;;;;;;;5014445;28;20061;-63
2023/09/13 02:18:39;;;;;;;23.83;11.63;;;;;;;;;;5017280;28;20065;-65
2023/09/13 02:21:09;;;;;;;27.88;13.40;;;;;;;;;;5023926;28;20049;-67
2023/09/13 02:23:36;;;;;;;23.13;12.32;;;;;;;;;;5037005;28;20080;-64
2023/09/13 02:26:03;;;;;;;28.77;12.40;;;;;;;;;;4995631;28;20058;-67
2023/09/13 02:28:30;;;;;;;21.90;12.48;;;;;;;;;;4991021;28;20132;-63
2023/09/13 02:30:56;;;;;;;20.58;11.57;;;;;;;;;;4996218;28;20152;-65
2023/09/13 02:33:23;;;;;;;26.42;11.20;;;;;;;;;;5000410;28;20092;-61
2023/09/13 02:35:50;;;;;;;22.63;11.70;;;;;;;;;;5013163;28;20088;-63
2023/09/13 02:38:18;;;;;;;23.52;12.18;;;;;;;;;;4985552;28;20055;-64
2023/09/13 02:40:44;;;;;;;27.15;11.77;;;;;;;;;;4996752;28;20065;-68
2023/09/13 02:43:11;;;;;;;24.02;12.10;;;;;;;;;;4996540;28;20148;-66
2023/09/13 02:45:38;;;;;;;26.00;11.85;;;;;;;;;;4986869;28;20050;-62
2023/09/13 02:48:06;;;;;;;29.60;11.80;;;;;;;;;;4997179;28;20079;-64
2023/09/13 02:50:33;;;;;;;23.55;11.20;;;;;;;;;;4997317;28;20058;-67
2023/09/13 02:52:59;;;;;;;20.85;11.07;;;;;;;;;;5001667;28;20133;-63
2023/09/13 02:55:27;;;;;;;19.20;11.02;;;;;;;;;;5008674;28;20058;-64
2023/09/13 02:57:54;;;;;;;24.75;11.23;;;;;;;;;;5015971;28;20053;-69
2023/09/13 03:00:21;;;;;;;21.02;11.48;;;;;;;;;;5012020;28;20045;-66
2023/09/13 03:02:48;;;;;;;23.02;12.25;;;;;;;;;;5015969;28;20061;-68
2023/09/13 03:05:15;;;;;;;26.65;11.63;;;;;;;;;;5000886;28;20053;-67
2023/09/13 03:07:42;;;;;;;25.23;11.33;;;;;;;;;;5001910;28;20046;-68
2023/09/13 03:10:10;;;;;;;22.55;11.00;;;;;;;;;;4995120;28;20053;-63
2023/09/13 03:12:38;;;;;;;27.88;12.13;;;;;;;;;;4992879;28;20149;-67
2023/09/13 03:15:06;;;;;;;23.52;12.02;;;;;;;;;;5002187;28;20080;-64
2023/09/13 03:17:32;;;;;;;26.77;11.50;;;;;;;;;;5033564;28;20134;-66
2023/09/13 03:19:59;;;;;;;22.77;11.10;;;;;;;;;;5016302;28;20061;-63
2023/09/13 03:22:26;;;;;;;23.77;12.07;;;;;;;;;;5028847;28;20072;-69
2023/09/13 03:24:53;;;;;;;24.75;11.93;;;;;;;;;;5013553;28;20060;-65
2023/09/13 03:27:19;;;;;;;19.40;10.60;;;;;;;;;;5016965;28;20164;-65
2023/09/13 03:29:47;;;;;;;19.83;10.73;;;;;;;;;;5015725;28;20045;-70
2023/09/13 03:32:14;;;;;;;24.80;11.63;;;;;;;;;;5012640;28;20046;-65
2023/09/13 03:34:42;;;;;;;23.77;10.20;;;;;;;;;;5011262;28;20053;-66
2023/09/13 03:37:10;;;;;;;22.50;10.75;;;;;;;;;;5017586;28;20053;-68
2023/09/13 03:39:37;;;;;;;20.25;10.43;;;;;;;;;;5011427;28;20050;-66
2023/09/13 03:42:04;;;;;;;18.88;10.40;;;;;;;;;;4997601;28;20143;-68
2023/09/13 03:44:31;;;;;;;21.08;11.02;;;;;;;;;;4990585;28;20172;-65
2023/09/13 03:46:59;;;;;;;21.95;11.80;;;;;;;;;;4999985;28;20107;-67
2023/09/13 03:49:25;;;;;;;18.45;9.88;;;;;;;;;;4994939;28;20065;-66
2023/09/13 03:51:52;;;;;;;23.23;11.75;;;;;;;;;;4995914;28;20085;-66
2023/09/13 03:54:22;;;;;;;21.90;10.90;;;;;;;;;;4992638;28;20061;-65
2023/09/13 03:56:49;;;;;;;26.02;11.73;;;;;;;;;;5020021;28;20050;-65
2023/09/13 03:59:16;;;;;;;23.38;12.85;;;;;;;;;;5019719;28;20064;-65
2023/09/13 04:01:42;;;;;;;21.45;11.95;;;;;;;;;;5008542;28;20148;-65
2023/09/13 04:04:11;;;;;;;27.67;12.75;;;;;;;;;;4993177;28;20181;-65
2023/09/13 04:06:39;;;;;;;30.45;12.63;;;;;;;;;;5020815;28;20073;-65
2023/09/13 04:09:06;;;;;;;29.67;12.70;;;;;;;;;;5019538;28;20148;-65
2023/09/13 04:11:33;;;;;;;26.38;12.52;;;;;;;;;;5000747;28;20054;-67
2023/09/13 04:14:00;;;;;;;30.77;13.95;;;;;;;;;;5011617;28;20319;-66
2023/09/13 04:16:27;;;;;;;28.05;13.90;;;;;;;;;;5041814;28;20108;-65
2023/09/13 04:18:54;;;;;;;28.42;13.90;;;;;;;;;;5020241;28;20116;-65
2023/09/13 04:21:22;;;;;;;33.25;15.40;;;;;;;;;;5020790;28;20112;-68
2023/09/13 04:23:49;;;;;;;36.42;15.65;;;;;;;;;;5006659;28;20117;-64
2023/09/13 04:26:21;;;;;;;33.67;15.63;;;;;;;;;;5016152;28;20068;-67
2023/09/13 04:28:48;;;;;;;28.52;14.63;;;;;;;;;;5024576;28;20053;-65
2023/09/13 04:31:14;;;;;;;36.28;16.50;;;;;;;;;;5020381;28;20053;-65
2023/09/13 04:33:51;;;;;;;34.90;16.02;;;;;;;;;;5017481;28;20053;-64
2023/09/13 04:36:18;;;;;;;38.58;18.60;;;;;;;;;;5012155;28;20068;-66
2023/09/13 04:38:47;;;;;;;44.80;20.48;;;;;;;;;;5018018;28;20064;-64
2023/09/13 04:41:15;;;;;;;38.92;19.13;;;;;;;;;;5017959;28;20057;-63
2023/09/13 04:43:42;;;;;;;34.20;14.90;;;;;;;;;;5016412;28;20061;-65
2023/09/13 04:46:09;;;;;;;33.67;16.98;;;;;;;;;;5003948;28;20049;-64
2023/09/13 04:48:36;;;;;;;41.63;17.00;;;;;;;;;;5011601;28;20064;-64
2023/09/13 04:51:04;;;;;;;34.25;15.75;;;;;;;;;;5013769;28;20053;-67
2023/09/13 04:53:33;;;;;;;35.45;16.50;;;;;;;;;;5012393;28;20057;-65
2023/09/13 04:56:01;;;;;;;36.15;16.08;;;;;;;;;;4994227;28;20077;-64
2023/09/13 04:58:29;;;;;;;41.42;18.25;;;;;;;;;;4992437;28;20127;-65
2023/09/13 05:00:55;;;;;;;40.05;20.05;;;;;;;;;;4998581;28;20066;-66
2023/09/13 05:03:22;;;;;;;36.70;18.30;;;;;;;;;;4999607;28;20084;-64
2023/09/13 05:05:49;;;;;;;38.40;16.38;;;;;;;;;;5005490;28;20064;-63
2023/09/13 05:08:16;;;;;;;34.17;16.08;;;;;;;;;;5026156;28;20144;-69
2023/09/13 05:10:44;;;;;;;35.08;15.90;;;;;;;;;;5029061;28;20056;-67
2023/09/13 05:13:12;;;;;;;35.30;15.68;;;;;;;;;;5034561;28;20080;-65
2023/09/13 05:15:42;;;;;;;;;;;;;;;;;;4989558;28;20058;-66
2023/09/13 05:18:13;;;;;;;33.67;14.65;;;;;;;;;;4994491;28;19932;-66
2023/09/13 05:20:40;;;;;;;29.98;15.32;;;;;;;;;;5011391;28;20067;-65
2023/09/13 05:23:07;;;;;;;38.08;18.50;;;;;;;;;;5015076;28;20076;-63
2023/09/13 05:25:34;;;;;;;38.42;14.88;;;;;;;;;;4967262;28;20077;-61
2023/09/13 05:28:01;;;;;;;35.05;15.73;;;;;;;;;;4992922;28;20116;-64
2023/09/13 05:30:33;;;;;;;33.38;15.00;;;;;;;;;;4992844;28;20068;-63
2023/09/13 05:33:00;;;;;;;33.70;15.73;;;;;;;;;;5000804;28;20054;-63
2023/09/13 05:35:31;;;;;;;39.95;16.08;;;;;;;;;;5002780;28;20044;-64
2023/09/13 05:37:57;;;;;;;34.40;16.35;;;;;;;;;;5018203;28;20057;-66
2023/09/13 05:40:24;;;;;;;34.25;15.48;;;;;;;;;;5010828;28;20277;-62
2023/09/13 05:42:51;;;;;;;38.15;16.15;;;;;;;;;;5016614;28;20165;-61
2023/09/13 05:45:18;;;;;;;32.95;15.90;;;;;;;;;;5004913;28;20167;-67
2023/09/13 05:47:48;;;;;;;35.55;16.63;;;;;;;;;;5020461;28;20060;-63
2023/09/13 05:50:15;;;;;;;35.15;15.88;;;;;;;;;;5018201;28;20049;-65
2023/09/13 05:52:44;;;;;;;35.35;15.13;;;;;;;;;;5020061;28;20061;-62
2023/09/13 05:55:11;;;;;;;35.67;16.73;;;;;;;;;;5018654;28;20084;-66
2023/09/13 05:57:40;;;;;;;34.78;15.75;;;;;;;;;;5014948;28;20084;-65
2023/09/13 06:00:10;;;;;;;36.55;15.80;;;;;;;;;;4997606;28;20050;-65
2023/09/13 06:02:37;;;;;;;36.45;16.10;;;;;;;;;;4997375;28;20074;-63
2023/09/13 06:05:09;;;;;;;34.53;15.88;;;;;;;;;;4993543;28;20061;-66
2023/09/13 06:07:35;;;;;;;34.35;15.77;;;;;;;;;;5034068;28;20057;-66
2023/09/13 06:10:02;;;;;;;34.50;15.45;;;;;;;;;;5017911;28;20061;-63
2023/09/13 06:12:29;;;;;;;44.20;17.00;;;;;;;;;;5008735;28;20057;-62
2023/09/13 06:14:57;;;;;;;35.67;16.35;;;;;;;;;;4993235;28;20065;-63
2023/09/13 06:17:24;;;;;;;36.15;16.00;;;;;;;;;;4997556;28;20064;-64
2023/09/13 06:19:51;;;;;;;42.75;17.15;;;;;;;;;;4959880;28;20140;-65
2023/09/13 06:22:19;;;;;;;36.13;15.30;;;;;;;;;;5010458;28;20072;-66
2023/09/13 06:24:46;;;;;;;39.28;18.00;;;;;;;;;;5012225;28;20064;-61
2023/09/13 06:27:14;;;;;;;35.25;15.27;;;;;;;;;;5015948;28;20057;-64
2023/09/13 06:29:41;;;;;;;33.17;16.00;;;;;;;;;;5029555;28;20049;-63
2023/09/13 06:32:09;;;;;;;36.13;15.55;;;;;;;;;;5015278;28;20055;-66
2023/09/13 06:34:36;;;;;;;35.33;15.18;;;;;;;;;;4974003;28;20062;-63
2023/09/13 06:37:05;;;;;;;32.45;14.27;;;;;;;;;;5002300;28;20060;-64
2023/09/13 06:39:34;;;;;;;28.67;12.50;;;;;;;;;;4999392;28;20120;-64
2023/09/13 06:42:01;;;;;;;27.23;12.38;;;;;;;;;;4979666;28;20057;-65
2023/09/13 06:44:29;;;;;;;16.38;8.13;;;;;;;;;;4994461;28;20058;-67
2023/09/13 06:46:56;;;;;;;13.98;5.70;;;;;;;;;;4994139;28;20139;-66
2023/09/13 06:49:24;;;;;;;8.10;4.03;;;;;;;;;;4997470;28;20053;-68
2023/09/13 06:51:51;;;;;;;;;;;;;;;;;;4984504;28;20049;-65
2023/09/13 06:54:19;;;;;;;5.15;2.60;;;;;;;;;;5005713;28;19921;-69
2023/09/13 06:56:47;;;;;;;2.97;1.80;;;;;;;;;;4994986;28;20065;-68
2023/09/13 06:59:14;;;;;;;3.80;1.75;;;;;;;;;;4997141;28;20132;-64
2023/09/13 07:01:41;;;;;;;2.17;1.10;;;;;;;;;;5006684;28;20065;-66
2023/09/13 07:04:08;;;;;;;1.40;0.90;;;;;;;;;;4996291;28;20050;-67
2023/09/13 07:06:40;;;;;;;3.03;1.30;;;;;;;;;;4997925;28;20057;-67
2023/09/13 07:09:07;;;;;;;2.30;0.85;;;;;;;;;;5015335;28;20042;-67
2023/09/13 07:11:34;;;;;;;1.38;0.85;;;;;;;;;;4990789;28;20060;-68
2023/09/13 07:14:02;;;;;;;4.05;1.13;;;;;;;;;;5001297;28;20088;-68
2023/09/13 07:16:31;;;;;;;1.48;0.90;;;;;;;;;;4995211;28;20127;-63
2023/09/13 07:18:58;;;;;;;1.70;0.88;;;;;;;;;;4995882;28;21057;-66
2023/09/13 07:21:24;;;;;;;4.43;1.70;;;;;;;;;;5006296;28;20049;-66
2023/09/13 07:23:54;;;;;;;2.03;1.00;;;;;;;;;;5017632;28;20050;-67
2023/09/13 07:26:23;;;;;;;1.92;0.85;;;;;;;;;;5014806;28;20397;-66
2023/09/13 07:28:50;;;;;;;1.75;0.70;;;;;;;;;;5012161;28;20152;-64
2023/09/13 07:31:18;;;;;;;1.67;0.65;;;;;;;;;;4990907;28;20053;-66
2023/09/13 07:33:45;;;;;;;1.75;0.75;;;;;;;;;;5017409;28;20069;-64
2023/09/13 07:36:14;;;;;;;2.97;1.00;;;;;;;;;;5022897;28;20065;-70
2023/09/13 07:38:41;;;;;;;5.57;0.75;;;;;;;;;;5017378;28;20089;-69
2023/09/13 07:41:08;;;;;;;1.38;0.70;;;;;;;;;;5000223;28;20065;-68
2023/09/13 07:43:37;;;;;;;1.88;0.70;;;;;;;;;;5022646;28;20111;-67
2023/09/13 07:46:05;;;;;;;1.13;0.52;;;;;;;;;;5022116;28;20053;-66
2023/09/13 07:48:34;;;;;;;2.22;0.60;;;;;;;;;;5016061;28;20101;-66
2023/09/13 07:51:01;;;;;;;2.88;0.47;;;;;;;;;;5000817;28;20144;-65
2023/09/13 07:53:27;;;;;;;2.08;0.70;;;;;;;;;;5021971;28;20061;-67
2023/09/13 07:55:55;;;;;;;0.70;0.52;;;;;;;;;;5019138;28;20115;-69
2023/09/13 07:58:22;;;;;;;1.83;0.60;;;;;;;;;;5020172;28;20069;-65
2023/09/13 08:00:49;;;;;;;4.82;0.80;;;;;;;;;;5009815;28;20053;-69
2023/09/13 08:03:16;;;;;;;0.90;0.50;;;;;;;;;;5025817;28;20050;-64
2023/09/13 08:05:46;;;;;;;1.48;0.57;;;;;;;;;;5020811;28;20053;-67
2023/09/13 08:08:18;;;;;;;2.20;0.80;;;;;;;;;;4981591;28;20050;-69
2023/09/13 08:10:45;;;;;;;3.22;0.60;;;;;;;;;;4962546;28;20116;-66
2023/09/13 08:13:11;;;;;;;3.45;1.48;;;;;;;;;;4991432;28;20054;-69
2023/09/13 08:15:38;;;;;;;3.08;1.55;;;;;;;;;;4981495;28;20065;-65
2023/09/13 08:18:05;;;;;;;2.35;0.90;;;;;;;;;;4980773;28;20086;-68
2023/09/13 08:20:32;;;;;;;1.65;0.60;;;;;;;;;;4972272;28;20062;-68
2023/09/13 08:23:00;;;;;;;1.55;0.70;;;;;;;;;;4977905;28;20088;-69
2023/09/13 08:25:28;;;;;;;2.35;0.60;;;;;;;;;;4984504;28;20062;-66
2023/09/13 08:27:57;;;;;;;2.38;0.60;;;;;;;;;;4980184;28;20074;-67
2023/09/13 08:30:30;;;;;;;3.58;0.75;;;;;;;;;;4949820;28;20515;-65
2023/09/13 08:32:56;;;;;;;2.42;0.90;;;;;;;;;;4973844;28;20050;-66
2023/09/13 08:35:25;;;;;;;4.43;0.70;;;;;;;;;;4979102;28;20113;-69
2023/09/13 08:37:52;;;;;;;2.80;0.73;;;;;;;;;;4981036;28;20297;-67
2023/09/13 08:40:24;;;;;;;3.95;0.80;;;;;;;;;;4949631;28;20083;-66
2023/09/13 08:42:56;;;;;;;0.95;0.60;;;;;;;;;;4967817;28;20058;-65
2023/09/13 08:45:26;;;;;;;2.50;0.70;;;;;;;;;;4979525;28;20123;-66
2023/09/13 08:48:01;;;;;;;1.80;1.00;;;;;;;;;;4980201;28;20062;-67
2023/09/13 08:50:30;;;;;;;2.17;0.65;;;;;;;;;;4974740;28;20150;-65
2023/09/13 08:53:00;;;;;;;2.95;0.80;;;;;;;;;;4974851;28;20092;-66
2023/09/13 08:55:34;;;;;;;1.90;0.60;;;;;;;;;;4980928;28;20054;-66
2023/09/13 08:58:01;;;;;;;3.47;1.10;;;;;;;;;;4979874;28;20070;-69
2023/09/13 09:00:32;;;;;;;3.53;0.85;;;;;;;;;;4943310;28;20071;-65
2023/09/13 09:03:02;;;;;;;2.28;0.90;;;;;;;;;;4977039;28;20069;-65
2023/09/13 09:05:31;;;;;;;4.82;0.95;;;;;;;;;;4975443;28;20074;-65
2023/09/13 09:07:59;;;;;;;3.00;0.90;;;;;;;;;;4994273;28;20058;-69
2023/09/13 09:10:31;;;;;;;3.13;0.77;;;;;;;;;;5003110;28;20053;-68
2023/09/13 09:13:02;;;;;;;3.22;0.98;;;;;;;;;;5038643;28;20084;-67
2023/09/13 09:15:29;;;;;;;2.53;0.93;;;;;;;;;;5017364;28;20061;-70
2023/09/13 09:18:01;;;;;;;2.47;0.77;;;;;;;;;;5017843;28;20151;-67
2023/09/13 09:20:30;;;;;;;1.88;0.70;;;;;;;;;;4953944;28;20064;-65
2023/09/13 09:22:58;;;;;;;2.75;0.80;;;;;;;;;;4964528;28;20866;-68
2023/09/13 09:25:26;;;;;;;2.75;0.73;;;;;;;;;;5029143;28;20077;-70
2023/09/13 09:27:54;;;;;;;1.67;0.68;;;;;;;;;;5017072;28;20144;-66
2023/09/13 09:30:31;;;;;;;2.95;0.40;;;;;;;;;;5013383;28;20140;-68
2023/09/13 09:33:03;;;;;;;1.67;0.60;;;;;;;;;;5015417;28;20053;-68
2023/09/13 09:35:30;;;;;;;2.83;0.70;;;;;;;;;;5017846;28;20058;-68
2023/09/13 09:37:57;;;;;;;1.42;0.57;;;;;;;;;;5016208;28;20053;-70
2023/09/13 09:40:25;;;;;;;1.63;0.68;;;;;;;;;;4993662;28;20064;-68
2023/09/13 09:42:58;;;;;;;0.98;0.55;;;;;;;;;;5009264;28;20076;-64
2023/09/13 09:45:24;;;;;;;5.40;0.73;;;;;;;;;;5017011;28;20174;-70
2023/09/13 09:47:52;;;;;;;2.13;0.68;;;;;;;;;;5018912;28;20057;-66
2023/09/13 09:50:18;;;;;;;1.95;0.60;;;;;;;;;;5020295;28;20053;-70
2023/09/13 09:52:52;;;;;;;2.55;0.80;;;;;;;;;;5008987;28;20092;-68
2023/09/13 09:55:21;;;;;;;2.17;0.70;;;;;;;;;;5020471;28;20069;-65
2023/09/13 09:57:49;;;;;;;2.40;0.90;;;;;;;;;;5021221;28;20081;-64
2023/09/13 10:00:21;;;;;;;2.47;0.77;;;;;;;;;;5018479;28;20142;-67
2023/09/13 10:02:50;;;;;;;4.22;1.00;;;;;;;;;;4984882;28;20053;-65
2023/09/13 10:05:21;;;;;;;5.32;0.90;;;;;;;;;;5002831;28;20077;-66
2023/09/13 10:07:54;;;;;;;3.72;1.00;;;;;;;;;;4998146;28;20049;-64
2023/09/13 10:10:30;;;;;;;3.75;0.80;;;;;;;;;;5011682;28;20058;-62
2023/09/13 10:12:57;;;;;;;1.85;1.00;;;;;;;;;;4976199;28;20045;-66
2023/09/13 10:15:26;;;;;;;3.47;0.90;;;;;;;;;;5016893;28;20064;-66
2023/09/13 10:17:55;;;;;;;2.90;0.80;;;;;;;;;;5011617;28;20050;-67
2023/09/13 10:20:24;;;;;;;4.88;0.98;;;;;;;;;;5009534;28;20131;-64
2023/09/13 10:22:57;;;;;;;4.45;0.98;;;;;;;;;;4989916;28;20143;-68
2023/09/13 10:25:26;;;;;;;2.67;0.80;;;;;;;;;;5017571;28;20104;-68
2023/09/13 10:28:01;;;;;;;1.83;0.80;;;;;;;;;;5023041;28;20085;-69
2023/09/13 10:30:32;;;;;;;3.33;1.10;;;;;;;;;;5016139;28;20062;-64
2023/09/13 10:33:00;;;;;;;3.42;0.93;;;;;;;;;;4999487;28;20870;-68
2023/09/13 10:35:33;;;;;;;3.20;1.20;;;;;;;;;;4996929;28;20356;-68
2023/09/13 10:38:04;;;;;;;3.92;1.33;;;;;;;;;;4999199;28;20066;-69
2023/09/13 10:40:39;;;;;;;5.13;1.23;;;;;;;;;;4988287;28;20136;-66
2023/09/13 10:43:06;;;;;;;5.88;1.33;;;;;;;;;;5006477;28;20057;-66
2023/09/13 10:45:36;;;;;;;5.93;1.00;;;;;;;;;;5016027;28;20065;-67
2023/09/13 10:48:05;;;;;;;8.50;1.23;;;;;;;;;;5021058;28;20111;-71
2023/09/13 10:50:32;;;;;;;6.05;1.38;;;;;;;;;;5012987;28;20049;-69
2023/09/13 10:53:00;;;;;;;5.25;1.23;;;;;;;;;;4958490;28;20140;-65
2023/09/13 10:55:28;;;;;;;3.25;1.23;;;;;;;;;;4990363;28;20066;-68
2023/09/13 10:57:57;;;;;;;6.70;1.40;;;;;;;;;;4979044;28;20150;-64
2023/09/13 11:00:32;;;;;;;2.50;1.13;;;;;;;;;;4976227;28;20066;-62
2023/09/13 11:03:00;;;;;;;5.72;1.33;;;;;;;;;;4972009;28;20464;-68
2023/09/13 11:05:28;;;;;;;;;;;;;;;;;;4997955;28;20068;-70
2023/09/13 11:07:57;;;;;;;3.00;1.03;;;;;;;;;;4998358;28;19921;-67
2023/09/13 11:10:24;;;;;;;3.75;1.05;;;;;;;;;;4998432;28;20064;-65
2023/09/13 11:12:50;;;;;;;3.25;1.10;;;;;;;;;;4968475;28;20041;-68
2023/09/13 11:15:22;;;;;;;4.93;1.10;;;;;;;;;;5017242;28;20053;-68
2023/09/13 11:17:49;;;;;;;9.32;1.67;;;;;;;;;;5016177;28;20058;-65
2023/09/13 11:20:27;;;;;;;8.38;1.30;;;;;;;;;;5016175;28;20057;-69
2023/09/13 11:23:03;;;;;;;4.15;1.23;;;;;;;;;;5002207;28;20075;-64
2023/09/13 11:25:39;;;;;;;5.47;1.30;;;;;;;;;;5015999;28;20061;-63
2023/09/13 11:28:07;;;;;;;6.95;1.20;;;;;;;;;;5015771;28;20053;-67
2023/09/13 11:30:50;;;;;;;5.90;1.20;;;;;;;;;;5005565;28;20077;-67
2023/09/13 11:33:18;;;;;;;4.55;1.15;;;;;;;;;;5005227;28;20107;-65
2023/09/13 11:35:46;;;;;;;3.40;0.88;;;;;;;;;;5018910;28;20138;-62
2023/09/13 11:38:13;;;;;;;3.08;1.02;;;;;;;;;;5017385;28;20061;-68
2023/09/13 11:40:46;;;;;;;3.57;1.00;;;;;;;;;;5010358;28;20061;-62
2023/09/13 11:43:13;;;;;;;1.67;0.88;;;;;;;;;;5003836;28;20422;-67
2023/09/13 11:45:40;;;;;;;1.13;0.73;;;;;;;;;;5015761;28;20057;-66
2023/09/13 11:48:08;;;;;;;3.13;0.75;;;;;;;;;;5016629;28;20053;-69
2023/09/13 11:50:43;;;;;;;4.57;1.17;;;;;;;;;;5011695;28;20077;-64
2023/09/13 11:53:16;;;;;;;3.17;0.98;;;;;;;;;;5014928;28;20085;-69
2023/09/13 11:55:49;;;;;;;3.25;0.90;;;;;;;;;;5015584;28;20049;-69
2023/09/13 11:58:17;;;;;;;1.63;0.60;;;;;;;;;;5018222;28;20066;-65
2023/09/13 12:00:44;;;;;;;3.00;0.73;;;;;;;;;;5008521;28;20060;-64
2023/09/13 12:03:16;;;;;;;2.25;0.88;;;;;;;;;;4926093;28;20061;-64
2023/09/13 12:05:45;;;;;;;2.08;0.93;;;;;;;;;;5020136;28;20053;-68
2023/09/13 12:08:29;;;;;;;4.43;0.82;;;;;;;;;;5015123;28;20064;-65
2023/09/13 12:10:56;;;;;;;6.40;1.02;;;;;;;;;;5000717;28;20218;-65
2023/09/13 12:13:43;;;;;;;7.03;1.17;;;;;;;;;;4958325;28;20060;-64
2023/09/13 12:16:10;;;;;;;6.40;1.25;;;;;;;;;;4998287;28;20077;-62
2023/09/13 12:18:39;;;;;;;5.00;0.90;;;;;;;;;;5029284;28;20060;-67
2023/09/13 12:21:07;;;;;;;4.75;0.95;;;;;;;;;;4986450;28;20053;-67
2023/09/13 12:23:36;;;;;;;3.00;0.95;;;;;;;;;;5006252;28;20085;-66
2023/09/13 12:26:07;;;;;;;6.05;1.10;;;;;;;;;;4998749;28;20107;-69
2023/09/13 12:28:37;;;;;;;7.07;1.42;;;;;;;;;;4997638;28;20092;-65
2023/09/13 12:31:06;;;;;;;7.13;1.52;;;;;;;;;;4979914;28;20057;-66
2023/09/13 12:33:34;;;;;;;7.43;1.60;;;;;;;;;;5004457;28;20119;-65
2023/09/13 12:36:01;;;;;;;7.80;1.35;;;;;;;;;;5019451;28;20053;-67
2023/09/13 12:38:32;;;;;;;4.47;0.95;;;;;;;;;;5021216;28;20053;-67
2023/09/13 12:41:00;;;;;;;4.72;1.27;;;;;;;;;;5021432;28;20091;-70
2023/09/13 12:43:30;;;;;;;4.63;0.98;;;;;;;;;;5021544;28;20049;-67
2023/09/13 12:45:58;;;;;;;2.55;1.02;;;;;;;;;;5017495;28;20049;-66
2023/09/13 12:48:26;;;;;;;7.70;1.30;;;;;;;;;;5019770;28;20060;-68
2023/09/13 12:50:54;;;;;;;3.67;1.23;;;;;;;;;;5024691;28;20053;-68
2023/09/13 12:53:23;;;;;;;2.47;1.00;;;;;;;;;;5001729;28;20099;-68
2023/09/13 12:55:50;;;;;;;4.90;1.70;;;;;;;;;;5034478;28;20065;-65
2023/09/13 12:58:23;;;;;;;6.03;1.10;;;;;;;;;;5024691;28;20049;-62
2023/09/13 13:00:55;;;;;;;9.02;1.38;;;;;;;;;;5015991;28;20151;-63
2023/09/13 13:03:24;;;;;;;6.72;1.20;;;;;;;;;;5007584;28;20054;-64
2023/09/13 13:05:53;;;;;;;3.30;1.10;;;;;;;;;;5014200;28;20050;-66
2023/09/13 13:08:20;;;;;;;3.15;1.10;;;;;;;;;;5024981;28;20148;-65
2023/09/13 13:10:58;;;;;;;2.53;1.13;;;;;;;;;;5008017;28;20068;-67
2023/09/13 13:13:33;;;;;;;4.35;1.38;;;;;;;;;;5016354;28;20057;-69
2023/09/13 13:16:14;;;;;;;2.20;1.00;;;;;;;;;;5035068;28;20065;-67
2023/09/13 13:18:45;;;;;;;;;;;;;;;;;;5032455;28;20136;-70
2023/09/13 13:21:13;;;;;;;3.97;0.88;;;;;;;;;;5004494;28;19952;-66
2023/09/13 13:23:42;;;;;;;3.80;0.90;;;;;;;;;;5008189;28;20053;-71
2023/09/13 13:26:08;;;;;;;3.38;0.80;;;;;;;;;;5016412;28;20061;-67
2023/09/13 13:28:37;;;;;;;3.08;0.80;;;;;;;;;;5004817;28;20076;-64
2023/09/13 13:31:04;;;;;;;2.85;0.70;;;;;;;;;;5020863;28;20061;-67
2023/09/13 13:33:34;;;;;;;4.63;0.60;;;;;;;;;;4962479;28;20073;-62
2023/09/13 13:36:02;;;;;;;6.28;0.85;;;;;;;;;;5018590;28;20085;-68
2023/09/13 13:38:29;;;;;;;4.67;0.90;;;;;;;;;;5019992;28;20119;-64
2023/09/13 13:41:04;;;;;;;1.47;0.70;;;;;;;;;;5014637;28;20065;-67
2023/09/13 13:43:31;;;;;;;2.97;0.80;;;;;;;;;;4979356;28;20056;-66
2023/09/13 13:45:59;;;;;;;1.05;0.80;;;;;;;;;;5006640;28;20050;-65
2023/09/13 13:48:30;;;;;;;2.67;0.77;;;;;;;;;;4998006;28;20072;-66
2023/09/13 13:50:57;;;;;;;5.90;0.90;;;;;;;;;;5004469;28;20072;-68
2023/09/13 13:53:26;;;;;;;5.80;1.52;;;;;;;;;;4996992;28;20121;-63
2023/09/13 13:55:53;;;;;;;;;;;;;;;;;;5001185;28;20050;-66
2023/09/13 13:58:19;;;;;;;0.95;0.65;;;;;;;;;;5014131;28;19932;-68
2023/09/13 14:00:46;;;;;;;2.40;1.00;;;;;;;;;;4985841;28;20374;-68
2023/09/13 14:03:20;;;;;;;3.08;1.05;;;;;;;;;;4925110;28;20086;-63
2023/09/13 14:05:49;;;;;;;2.88;0.90;;;;;;;;;;4962071;28;20066;-64
2023/09/13 14:08:18;;;;;;;3.47;1.00;;;;;;;;;;4958556;28;20101;-67
2023/09/13 14:10:45;;;;;;;5.10;1.80;;;;;;;;;;4953133;28;20116;-65
2023/09/13 14:13:13;;;;;;;8.60;2.30;;;;;;;;;;4964192;28;20058;-69
2023/09/13 14:15:40;;;;;;;9.65;4.13;;;;;;;;;;4993387;28;20049;-67
2023/09/13 14:18:09;;;;;;;4.40;1.42;;;;;;;;;;4979904;28;20059;-66
2023/09/13 14:20:41;;;;;;;2.20;1.10;;;;;;;;;;4974666;28;20058;-67
2023/09/13 14:23:08;;;;;;;1.65;1.02;;;;;;;;;;4970407;28;20050;-68
2023/09/13 14:25:35;;;;;;;3.20;0.85;;;;;;;;;;5020552;28;20060;-69
2023/09/13 14:28:02;;;;;;;3.10;1.08;;;;;;;;;;5019892;28;20080;-70
2023/09/13 14:30:29;;;;;;;3.10;0.95;;;;;;;;;;5004564;28;20042;-69
2023/09/13 14:32:55;;;;;;;3.88;1.00;;;;;;;;;;4989993;28;20594;-66
2023/09/13 14:35:23;;;;;;;3.03;1.02;;;;;;;;;;5012102;28;20056;-68
2023/09/13 14:37:52;;;;;;;2.75;1.13;;;;;;;;;;4995206;28;20058;-69
2023/09/13 14:40:19;;;;;;;2.60;1.00;;;;;;;;;;5000928;28;20111;-67
2023/09/13 14:42:49;;;;;;;5.35;1.10;;;;;;;;;;5006108;28;20068;-71